Time;durP1;ratioP1;P1;durP2;ratioP2;P2;SDS_P1;SDS_P2;PMS_P1;PMS_P2;Temp;Humidity;BMP_temperature;BMP_pressure;BME280_temperature;BME280_humidity;BME280_pressure;Samples;Min_cycle;Max_cycle;Signal;HPM_P1;HPM_P2
2023/06/25 00:01:23;;;;;;;7.15;3.97;;;21.40;99.90;;;;;;5013821;28;20026;-37
2023/06/25 00:03:49;;;;;;;6.05;3.92;;;21.40;99.90;;;;;;5017894;28;20495;-32
2023/06/25 00:06:15;;;;;;;5.97;4.30;;;21.40;99.90;;;;;;5013009;28;20030;-34
2023/06/25 00:08:40;;;;;;;5.93;4.43;;;21.30;99.90;;;;;;5016593;28;20429;-31
2023/06/25 00:11:06;;;;;;;6.20;4.32;;;21.30;99.90;;;;;;5015568;28;20087;-31
2023/06/25 00:13:32;;;;;;;3.95;3.55;;;21.20;99.90;;;;;;5024562;28;20079;-33
2023/06/25 00:15:58;;;;;;;5.32;4.32;;;21.20;99.90;;;;;;5033643;28;20057;-34
2023/06/25 00:18:26;;;;;;;7.07;4.05;;;21.10;99.90;;;;;;5030938;28;20429;-32
2023/06/25 00:20:55;;;;;;;7.07;4.30;;;21.10;99.90;;;;;;5030064;28;20035;-33
2023/06/25 00:23:21;;;;;;;5.63;4.53;;;21.10;99.90;;;;;;5031269;28;20477;-35
2023/06/25 00:25:46;;;;;;;7.93;4.60;;;21.00;99.90;;;;;;5030098;28;20149;-32
2023/06/25 00:28:12;;;;;;;7.85;4.25;;;21.00;99.90;;;;;;5032627;28;20029;-37
2023/06/25 00:30:38;;;;;;;7.18;4.32;;;20.90;99.90;;;;;;5032277;28;20029;-31
2023/06/25 00:33:04;;;;;;;6.70;4.32;;;20.90;99.90;;;;;;5018675;28;20028;-31
2023/06/25 00:35:49;;;;;;;5.97;4.43;;;20.90;99.90;;;;;;5029221;28;20029;-37
2023/06/25 00:38:15;;;;;;;11.20;5.85;;;20.80;99.90;;;;;;5012024;28;20026;-33
2023/06/25 00:40:41;;;;;;;7.75;5.38;;;20.80;99.90;;;;;;5012941;28;20072;-33
2023/06/25 00:43:07;;;;;;;9.57;5.68;;;20.80;99.90;;;;;;5018174;28;20447;-32
2023/06/25 00:45:34;;;;;;;7.75;4.50;;;20.70;99.90;;;;;;5032083;28;20593;-36
2023/06/25 00:48:00;;;;;;;10.82;5.65;;;20.70;99.90;;;;;;5029940;28;20535;-35
2023/06/25 00:50:26;;;;;;;8.70;4.95;;;20.80;99.90;;;;;;5028740;28;20025;-35
2023/06/25 00:52:52;;;;;;;7.25;4.80;;;20.80;99.90;;;;;;5033137;28;20368;-34
2023/06/25 00:55:19;;;;;;;8.27;4.85;;;20.80;99.90;;;;;;5031844;28;20021;-32
2023/06/25 00:57:46;;;;;;;;;;;20.70;99.90;;;;;;5033503;28;20056;-35
2023/06/25 01:00:14;;;;;;;6.10;4.38;;;20.70;99.90;;;;;;5032244;28;20373;-31
2023/06/25 01:03:03;;;;;;;;;;;20.70;99.90;;;;;;5030187;28;20108;-33
2023/06/25 01:06:09;;;;;;;8.65;5.22;;;20.70;99.90;;;;;;5031866;28;20007;-34
2023/06/25 01:08:37;;;;;;;9.17;5.63;;;20.70;99.90;;;;;;5033233;28;20029;-34
2023/06/25 01:11:05;;;;;;;7.75;4.88;;;20.70;99.90;;;;;;5031016;28;20279;-32
2023/06/25 01:13:31;;;;;;;6.78;4.80;;;20.60;99.90;;;;;;5030085;28;20067;-31
2023/06/25 01:15:56;;;;;;;7.32;5.10;;;20.60;99.90;;;;;;5032885;28;20038;-33
2023/06/25 01:18:23;;;;;;;11.65;5.40;;;20.60;99.90;;;;;;5027928;28;20071;-31
2023/06/25 01:20:51;;;;;;;10.45;6.35;;;20.50;99.90;;;;;;5029309;28;20025;-30
2023/06/25 01:23:17;;;;;;;9.80;5.45;;;20.50;99.90;;;;;;5030824;28;20037;-31
2023/06/25 01:25:48;;;;;;;8.45;5.50;;;20.50;99.90;;;;;;5032987;28;20477;-51
2023/06/25 01:28:14;;;;;;;9.55;6.10;;;20.50;99.90;;;;;;5032945;28;20483;-31
2023/06/25 01:30:40;;;;;;;6.95;5.57;;;20.50;99.90;;;;;;5030826;28;20109;-36
2023/06/25 01:33:05;;;;;;;11.02;6.22;;;20.50;99.90;;;;;;5024553;28;20113;-32
2023/06/25 01:35:31;;;;;;;10.27;6.35;;;20.50;99.90;;;;;;5032916;28;20072;-33
2023/06/25 01:37:58;;;;;;;12.27;5.93;;;20.50;99.90;;;;;;5030517;28;20048;-31
2023/06/25 01:40:24;;;;;;;11.43;6.82;;;20.50;99.90;;;;;;5015149;28;20025;-33
2023/06/25 01:42:52;;;;;;;15.90;6.95;;;20.40;99.90;;;;;;5032274;28;20060;-31
2023/06/25 01:45:18;;;;;;;13.45;6.82;;;20.50;99.90;;;;;;5036680;28;20029;-33
2023/06/25 01:47:44;;;;;;;10.05;6.55;;;20.50;99.90;;;;;;5036579;28;20029;-31
2023/06/25 01:50:09;;;;;;;14.48;7.72;;;20.50;99.90;;;;;;5032275;28;20029;-31
2023/06/25 01:52:35;;;;;;;12.30;7.03;;;20.40;99.90;;;;;;5036640;28;20056;-31
2023/06/25 01:55:01;;;;;;;10.55;6.38;;;20.40;99.90;;;;;;5036491;28;20112;-36
2023/06/25 01:57:27;;;;;;;11.32;6.30;;;20.40;99.90;;;;;;5034185;28;20052;-41
2023/06/25 01:59:53;;;;;;;10.95;6.75;;;20.40;99.90;;;;;;5036369;28;20030;-33
2023/06/25 02:02:18;;;;;;;11.48;6.30;;;20.40;99.90;;;;;;5036310;28;20025;-33
2023/06/25 02:04:44;;;;;;;10.25;7.03;;;20.40;99.90;;;;;;5032167;28;20115;-34
2023/06/25 02:07:10;;;;;;;12.82;7.57;;;20.40;99.90;;;;;;5036161;28;20036;-36
2023/06/25 02:09:35;;;;;;;9.75;5.93;;;20.40;99.90;;;;;;5036181;28;20564;-30
2023/06/25 02:12:01;;;;;;;10.32;7.43;;;20.40;99.90;;;;;;5034785;28;20104;-31
2023/06/25 02:14:27;;;;;;;12.50;6.60;;;20.40;99.90;;;;;;5036118;28;20105;-31
2023/06/25 02:16:53;;;;;;;9.82;6.70;;;20.40;99.90;;;;;;5035938;28;20049;-34
2023/06/25 02:19:18;;;;;;;14.25;6.93;;;20.30;99.90;;;;;;5032059;28;20030;-33
2023/06/25 02:21:44;;;;;;;13.88;7.68;;;20.30;99.90;;;;;;5036041;28;20103;-32
2023/06/25 02:24:10;;;;;;;10.48;7.22;;;20.20;99.90;;;;;;5035870;28;20029;-32
2023/06/25 02:26:35;;;;;;;11.05;7.50;;;20.20;99.90;;;;;;5035901;28;20025;-34
2023/06/25 02:29:01;;;;;;;11.95;6.90;;;20.20;99.90;;;;;;5033389;28;20106;-30
2023/06/25 02:31:27;;;;;;;12.75;6.93;;;20.20;99.90;;;;;;5026911;28;20033;-32
2023/06/25 02:33:52;;;;;;;10.88;6.90;;;20.20;99.90;;;;;;5019017;28;20030;-31
2023/06/25 02:36:18;;;;;;;10.95;6.60;;;20.20;99.90;;;;;;5029208;28;20018;-32
2023/06/25 02:38:44;;;;;;;10.95;6.18;;;20.20;99.90;;;;;;5032199;28;20053;-34
2023/06/25 02:41:09;;;;;;;13.93;7.05;;;20.20;99.90;;;;;;5030915;28;20056;-31
2023/06/25 02:43:35;;;;;;;11.07;6.82;;;20.10;99.90;;;;;;5033110;28;20524;-33
2023/06/25 02:46:00;;;;;;;14.00;6.68;;;20.10;99.90;;;;;;5035512;28;20132;-39
2023/06/25 02:48:26;;;;;;;14.05;6.85;;;20.10;99.90;;;;;;5031243;28;20250;-39
2023/06/25 02:50:52;;;;;;;11.27;6.78;;;20.10;99.90;;;;;;5031883;28;20513;-35
2023/06/25 02:53:17;;;;;;;10.77;6.75;;;20.10;99.90;;;;;;5032468;28;20028;-35
2023/06/25 02:55:43;;;;;;;13.02;7.68;;;20.10;99.90;;;;;;5035391;28;20030;-37
2023/06/25 02:58:09;;;;;;;9.63;7.15;;;20.10;99.90;;;;;;5034069;28;20432;-34
2023/06/25 03:00:34;;;;;;;14.75;6.75;;;20.10;99.90;;;;;;5035317;28;20033;-34
2023/06/25 03:03:00;;;;;;;11.18;7.45;;;20.20;99.90;;;;;;5023620;28;20087;-49
2023/06/25 03:05:25;;;;;;;12.25;7.20;;;20.20;99.90;;;;;;5005342;28;20027;-39
2023/06/25 03:07:57;;;;;;;12.27;7.00;;;20.20;99.90;;;;;;4995714;28;20060;-38
2023/06/25 03:10:25;;;;;;;10.18;6.60;;;20.20;99.90;;;;;;5024689;28;20124;-38
2023/06/25 03:12:51;;;;;;;11.15;7.40;;;20.20;99.90;;;;;;5013336;28;20030;-43
2023/06/25 03:15:17;;;;;;;10.05;6.88;;;20.20;99.90;;;;;;5014084;28;20360;-38
2023/06/25 03:17:44;;;;;;;10.30;6.45;;;20.20;99.90;;;;;;5033806;28;20045;-41
2023/06/25 03:20:10;;;;;;;10.90;7.10;;;20.20;99.90;;;;;;5019751;28;20034;-37
2023/06/25 03:22:36;;;;;;;14.02;7.80;;;20.20;99.90;;;;;;5014430;28;20464;-54
2023/06/25 03:25:03;;;;;;;12.15;7.68;;;20.20;99.90;;;;;;5013216;28;20056;-40
2023/06/25 03:27:31;;;;;;;11.02;6.53;;;20.20;99.90;;;;;;5013513;28;20029;-38
2023/06/25 03:29:56;;;;;;;13.27;6.40;;;20.20;99.90;;;;;;5019352;28;20109;-38
2023/06/25 03:32:22;;;;;;;12.85;7.00;;;20.20;99.90;;;;;;5013512;28;20105;-38
2023/06/25 03:34:48;;;;;;;10.45;6.55;;;20.10;99.90;;;;;;5023980;28;20029;-39
2023/06/25 03:37:14;;;;;;;11.63;6.25;;;20.10;99.90;;;;;;5017348;28;21053;-40
2023/06/25 03:39:39;;;;;;;12.05;6.70;;;20.10;99.90;;;;;;5031741;28;20108;-48
2023/06/25 03:42:05;;;;;;;9.43;6.15;;;20.10;99.90;;;;;;5018996;28;20029;-32
2023/06/25 03:44:31;;;;;;;9.38;6.45;;;20.10;99.90;;;;;;5012433;28;20088;-35
2023/06/25 03:46:56;;;;;;;9.48;6.35;;;20.10;99.90;;;;;;5018211;28;20498;-31
2023/06/25 03:49:22;;;;;;;10.57;5.78;;;20.10;99.90;;;;;;5018754;28;20095;-32
2023/06/25 03:51:48;;;;;;;11.15;7.05;;;20.10;99.90;;;;;;5025283;28;20034;-35
2023/06/25 03:54:13;;;;;;;10.10;6.80;;;20.10;99.90;;;;;;5014096;28;20017;-32
2023/06/25 03:56:39;;;;;;;11.25;6.50;;;20.10;99.90;;;;;;5012365;28;20109;-35
2023/06/25 03:59:05;;;;;;;10.25;6.40;;;20.10;99.90;;;;;;5013175;28;20045;-31
2023/06/25 04:01:30;;;;;;;11.40;6.40;;;20.10;99.90;;;;;;5012791;28;20034;-33
2023/06/25 04:03:56;;;;;;;11.43;6.88;;;20.10;99.90;;;;;;5011335;28;20045;-42
2023/06/25 04:06:21;;;;;;;16.83;6.82;;;20.10;99.90;;;;;;5004419;28;20041;-36
2023/06/25 04:08:47;;;;;;;11.18;7.32;;;20.10;99.90;;;;;;5013481;28;20472;-38
2023/06/25 04:11:13;;;;;;;9.45;6.32;;;20.10;99.90;;;;;;5011736;28;20045;-51
2023/06/25 04:13:38;;;;;;;10.52;6.60;;;20.10;99.90;;;;;;5013247;28;20390;-33
2023/06/25 04:16:06;;;;;;;9.82;6.15;;;20.10;99.90;;;;;;5016254;28;20034;-31
2023/06/25 04:18:37;;;;;;;11.50;6.55;;;20.10;99.90;;;;;;5013475;28;20108;-37
2023/06/25 04:21:03;;;;;;;12.55;7.05;;;20.10;99.90;;;;;;5028232;28;20087;-30
2023/06/25 04:23:29;;;;;;;12.52;6.55;;;20.10;99.90;;;;;;5022573;28;20091;-38
2023/06/25 04:25:54;;;;;;;10.45;7.00;;;20.10;99.90;;;;;;5012179;28;20030;-38
2023/06/25 04:28:20;;;;;;;10.38;6.38;;;20.10;99.90;;;;;;5012285;28;20018;-32
2023/06/25 04:30:46;;;;;;;11.43;6.63;;;20.10;99.90;;;;;;5012523;28;20045;-38
2023/06/25 04:33:11;;;;;;;10.43;6.47;;;20.20;99.90;;;;;;5022951;28;20033;-31
2023/06/25 04:35:37;;;;;;;15.13;7.63;;;20.20;99.90;;;;;;5029083;28;20060;-34
2023/06/25 04:38:03;;;;;;;13.63;7.07;;;20.30;99.90;;;;;;5033473;28;20398;-31
2023/06/25 04:40:28;;;;;;;11.40;7.40;;;20.30;99.90;;;;;;5029342;28;20034;-35
2023/06/25 04:42:54;;;;;;;13.88;6.88;;;20.30;99.90;;;;;;5033413;28;20076;-34
2023/06/25 04:45:20;;;;;;;12.30;6.72;;;20.40;99.90;;;;;;5024902;28;20525;-40
2023/06/25 04:47:45;;;;;;;12.85;6.93;;;20.40;99.90;;;;;;5033221;28;20022;-39
2023/06/25 04:50:11;;;;;;;8.95;6.70;;;20.50;99.90;;;;;;5029849;28;20022;-39
2023/06/25 04:52:37;;;;;;;13.63;7.50;;;20.50;99.90;;;;;;5032018;28;20030;-33
2023/06/25 04:55:02;;;;;;;11.65;6.30;;;20.50;99.90;;;;;;5031737;28;20099;-33
2023/06/25 04:57:28;;;;;;;11.50;7.03;;;20.60;99.90;;;;;;5016869;28;20493;-33
2023/06/25 04:59:54;;;;;;;9.40;6.68;;;20.60;99.90;;;;;;5013379;28;20501;-31
2023/06/25 05:02:19;;;;;;;8.68;5.80;;;20.80;99.90;;;;;;5013369;28;20160;-33
2023/06/25 05:04:45;;;;;;;11.48;6.85;;;20.90;99.90;;;;;;5014053;28;20025;-35
2023/06/25 05:07:11;;;;;;;11.63;7.25;;;20.90;99.90;;;;;;5032920;28;20036;-31
2023/06/25 05:09:36;;;;;;;9.10;6.53;;;21.00;99.90;;;;;;5031654;28;20113;-31
2023/06/25 05:12:03;;;;;;;9.15;6.30;;;21.00;99.90;;;;;;5032890;28;20057;-35
2023/06/25 05:14:28;;;;;;;10.00;6.68;;;21.00;99.90;;;;;;5019751;28;20021;-31
2023/06/25 05:16:54;;;;;;;9.98;6.50;;;21.10;99.90;;;;;;5032616;28;20056;-36
2023/06/25 05:19:20;;;;;;;11.18;6.85;;;21.20;99.90;;;;;;5032810;28;20025;-33
2023/06/25 05:21:45;;;;;;;10.30;6.15;;;21.40;99.90;;;;;;5028890;28;20528;-48
2023/06/25 05:24:11;;;;;;;10.07;6.18;;;21.50;99.90;;;;;;5029939;28;20125;-34
2023/06/25 05:26:37;;;;;;;6.70;5.38;;;21.60;99.90;;;;;;5031825;28;20105;-33
2023/06/25 05:29:02;;;;;;;11.52;7.03;;;21.60;99.90;;;;;;5027412;28;20025;-33
2023/06/25 05:31:29;;;;;;;12.75;7.47;;;21.70;99.90;;;;;;5026184;28;20028;-58
2023/06/25 05:33:54;;;;;;;11.20;7.22;;;21.80;99.90;;;;;;5032783;28;20033;-39
2023/06/25 05:36:21;;;;;;;11.13;6.93;;;21.90;99.90;;;;;;5028363;28;20025;-39
2023/06/25 05:38:46;;;;;;;12.73;6.70;;;22.00;99.90;;;;;;5032708;28;20025;-38
2023/06/25 05:41:13;;;;;;;10.15;6.35;;;22.20;99.90;;;;;;5029713;28;20040;-39
2023/06/25 05:43:38;;;;;;;10.43;6.82;;;22.30;99.90;;;;;;5012852;28;20032;-38
2023/06/25 05:46:04;;;;;;;8.80;5.95;;;22.30;99.90;;;;;;5024911;28;20108;-37
2023/06/25 05:48:30;;;;;;;9.82;6.60;;;22.30;99.90;;;;;;5025759;28;20029;-40
2023/06/25 05:50:56;;;;;;;10.93;6.20;;;22.40;99.90;;;;;;5027654;28;20032;-38
2023/06/25 05:53:23;;;;;;;8.98;5.90;;;22.50;99.90;;;;;;5031154;28;20083;-38
2023/06/25 05:55:49;;;;;;;8.23;5.90;;;22.60;99.90;;;;;;5032575;28;20021;-39
2023/06/25 05:58:15;;;;;;;10.40;6.78;;;22.70;99.90;;;;;;5031294;28;20488;-37
2023/06/25 06:00:41;;;;;;;8.95;6.10;;;22.80;99.90;;;;;;5016666;28;20486;-39
2023/06/25 06:03:06;;;;;;;12.68;6.57;;;23.00;99.90;;;;;;5029766;28;20452;-38
2023/06/25 06:05:32;;;;;;;7.97;5.13;;;23.10;99.90;;;;;;5016373;28;20153;-37
2023/06/25 06:07:57;;;;;;;10.50;6.03;;;23.10;99.90;;;;;;5032603;28;20726;-38
2023/06/25 06:10:23;;;;;;;7.45;5.28;;;23.30;99.90;;;;;;5028931;28;20021;-37
2023/06/25 06:12:49;;;;;;;7.85;5.47;;;23.60;99.90;;;;;;5032268;28;20073;-50
2023/06/25 06:15:15;;;;;;;10.02;6.05;;;24.50;99.90;;;;;;5032334;28;20057;-46
2023/06/25 06:17:41;;;;;;;10.02;5.28;;;25.70;99.90;;;;;;5032201;28;20073;-38
2023/06/25 06:20:07;;;;;;;9.85;5.22;;;26.20;99.90;;;;;;5028650;28;20060;-38
2023/06/25 06:22:33;;;;;;;6.78;4.57;;;26.20;99.90;;;;;;5015319;28;20036;-39
2023/06/25 06:24:59;;;;;;;8.32;4.32;;;26.20;99.90;;;;;;5011753;28;20030;-39
2023/06/25 06:27:24;;;;;;;10.75;6.10;;;26.30;99.90;;;;;;5029705;28;20113;-38
2023/06/25 06:29:50;;;;;;;9.35;5.43;;;26.50;99.90;;;;;;5035757;28;20022;-40
2023/06/25 06:32:16;;;;;;;9.75;5.90;;;27.00;99.90;;;;;;5020783;28;20034;-39
2023/06/25 06:34:41;;;;;;;7.80;4.45;;;28.00;99.90;;;;;;5015186;28;20371;-40
2023/06/25 06:37:07;;;;;;;7.50;4.68;;;28.20;99.90;;;;;;5032349;28;20017;-39
2023/06/25 06:39:34;;;;;;;6.57;4.18;;;28.20;99.90;;;;;;5036097;28;20061;-38
2023/06/25 06:42:00;;;;;;;7.20;4.10;;;28.00;99.90;;;;;;5035707;28;20032;-37
2023/06/25 06:44:25;;;;;;;13.15;5.07;;;27.90;99.40;;;;;;5035725;28;20029;-38
2023/06/25 06:46:51;;;;;;;11.85;5.30;;;27.80;99.20;;;;;;5032612;28;20132;-40
2023/06/25 06:49:17;;;;;;;9.88;4.72;;;28.10;99.50;;;;;;5027146;28;20022;-50
2023/06/25 06:51:44;;;;;;;8.20;5.15;;;28.60;98.80;;;;;;5028455;28;20113;-38
2023/06/25 06:54:09;;;;;;;9.43;5.43;;;28.40;98.20;;;;;;5026529;28;20018;-40
2023/06/25 06:56:35;;;;;;;7.53;4.88;;;28.00;98.80;;;;;;5025048;28;20470;-37
2023/06/25 06:59:01;;;;;;;6.60;4.80;;;27.90;98.50;;;;;;5014216;28;20537;-39
2023/06/25 07:01:27;;;;;;;6.15;4.10;;;28.00;98.40;;;;;;5024088;28;20033;-52
2023/06/25 07:03:53;;;;;;;8.90;4.88;;;28.00;99.00;;;;;;5033101;28;20029;-38
2023/06/25 07:06:19;;;;;;;11.48;5.90;;;28.00;98.60;;;;;;5033721;28;20034;-38
2023/06/25 07:08:44;;;;;;;7.87;4.60;;;28.30;98.50;;;;;;5034594;28;20055;-38
2023/06/25 07:11:10;;;;;;;8.70;4.97;;;29.20;97.90;;;;;;5030200;28;20026;-40
2023/06/25 07:13:36;;;;;;;6.65;4.38;;;30.50;97.10;;;;;;5034354;28;20478;-40
2023/06/25 07:16:01;;;;;;;5.82;3.65;;;32.10;96.10;;;;;;5015720;28;20026;-40
2023/06/25 07:18:27;;;;;;;6.07;4.05;;;33.20;95.60;;;;;;5023662;28;20044;-38
2023/06/25 07:20:53;;;;;;;4.95;3.53;;;34.00;94.30;;;;;;5015907;28;20034;-38
2023/06/25 07:23:18;;;;;;;4.03;3.35;;;34.30;93.70;;;;;;5015358;28;20475;-38
2023/06/25 07:25:44;;;;;;;5.30;3.42;;;33.70;93.70;;;;;;5015036;28;20037;-39
2023/06/25 07:28:10;;;;;;;6.87;4.87;;;33.20;93.70;;;;;;5015014;28;20030;-40
2023/06/25 07:30:37;;;;;;;7.07;4.53;;;33.50;93.40;;;;;;5014834;28;20026;-40
2023/06/25 07:33:03;;;;;;;3.55;3.22;;;33.50;93.50;;;;;;5014850;28;20464;-41
2023/06/25 07:35:29;;;;;;;4.43;3.37;;;33.60;93.80;;;;;;5025252;28;20064;-39
2023/06/25 07:37:54;;;;;;;7.70;4.83;;;33.90;93.30;;;;;;5033789;28;20025;-41
2023/06/25 07:40:20;;;;;;;6.13;4.00;;;34.20;92.70;;;;;;5019716;28;20060;-38
2023/06/25 07:42:46;;;;;;;7.80;4.47;;;34.20;92.60;;;;;;5012818;28;20121;-39
2023/06/25 07:45:11;;;;;;;6.77;4.50;;;34.00;92.90;;;;;;5013200;28;20022;-41
2023/06/25 07:47:37;;;;;;;7.97;4.60;;;33.80;92.20;;;;;;5013696;28;20406;-40
2023/06/25 07:50:03;;;;;;;6.63;3.80;;;33.40;92.20;;;;;;5017995;28;20125;-36
2023/06/25 07:52:29;;;;;;;6.28;3.90;;;32.80;93.00;;;;;;5012838;28;20026;-41
2023/06/25 07:54:54;;;;;;;7.00;4.60;;;32.40;93.30;;;;;;5012387;28;20487;-40
2023/06/25 07:57:20;;;;;;;5.67;4.43;;;32.10;93.00;;;;;;5014466;28;20026;-41
2023/06/25 07:59:47;;;;;;;5.80;4.27;;;31.90;92.90;;;;;;5018652;28;20056;-40
2023/06/25 08:02:13;;;;;;;3.60;2.97;;;31.80;93.40;;;;;;5034089;28;20264;-40
2023/06/25 08:04:38;;;;;;;7.00;4.23;;;31.80;93.90;;;;;;5029516;28;20095;-39
2023/06/25 08:07:04;;;;;;;6.37;4.67;;;32.00;93.30;;;;;;5032898;28;20092;-40
2023/06/25 08:09:31;;;;;;;6.93;4.13;;;32.10;93.20;;;;;;5031575;28;20033;-63
2023/06/25 08:11:57;;;;;;;6.88;4.07;;;32.10;93.10;;;;;;5033836;28;20033;-39
2023/06/25 08:14:22;;;;;;;8.80;4.13;;;32.10;93.60;;;;;;5033870;28;20422;-41
2023/06/25 08:16:48;;;;;;;4.67;3.90;;;32.30;93.30;;;;;;5033590;28;20494;-38
2023/06/25 08:19:14;;;;;;;8.73;5.17;;;32.50;92.60;;;;;;5031140;28;20028;-33
2023/06/25 08:21:39;;;;;;;6.17;4.17;;;32.60;92.90;;;;;;5033975;28;20036;-32
2023/06/25 08:24:05;;;;;;;6.53;4.43;;;32.70;92.80;;;;;;5031396;28;20033;-35
2023/06/25 08:26:31;;;;;;;7.73;3.50;;;32.80;92.30;;;;;;5033789;28;20087;-32
2023/06/25 08:28:56;;;;;;;6.00;3.80;;;32.80;92.70;;;;;;5033588;28;20112;-32
2023/06/25 08:31:22;;;;;;;4.67;4.10;;;33.00;92.30;;;;;;5024287;28;20028;-36
2023/06/25 08:33:48;;;;;;;4.83;3.53;;;33.30;91.90;;;;;;5017592;28;20164;-31
2023/06/25 08:36:13;;;;;;;3.67;3.27;;;33.50;92.20;;;;;;5033380;28;20037;-31
2023/06/25 08:38:39;;;;;;;3.50;2.83;;;33.60;91.70;;;;;;5031058;28;20044;-44
2023/06/25 08:41:05;;;;;;;4.55;2.90;;;33.80;90.90;;;;;;5033393;28;20637;-34
2023/06/25 08:43:31;;;;;;;3.43;2.43;;;34.10;90.60;;;;;;5016397;28;20030;-31
2023/06/25 08:45:57;;;;;;;2.90;2.63;;;34.40;90.10;;;;;;5023320;28;20493;-41
2023/06/25 08:48:26;;;;;;;3.83;2.55;;;34.70;88.30;;;;;;5031142;28;20108;-45
2023/06/25 08:50:56;;;;;;;3.53;2.17;;;35.00;85.80;;;;;;5012416;28;20029;-33
2023/06/25 08:53:33;;;;;;;3.17;2.83;;;35.00;84.70;;;;;;5011295;28;20022;-33
2023/06/25 08:56:00;;;;;;;2.22;2.03;;;35.00;86.20;;;;;;5013427;28;20030;-33
2023/06/25 08:58:26;;;;;;;3.28;2.65;;;35.20;85.40;;;;;;5017487;28;20079;-32
2023/06/25 09:00:52;;;;;;;3.97;2.60;;;35.40;83.70;;;;;;5012565;28;20025;-33
2023/06/25 09:03:18;;;;;;;2.95;2.45;;;35.40;84.00;;;;;;5012686;28;20030;-34
2023/06/25 09:05:50;;;;;;;;;;;35.50;84.00;;;;;;5013563;28;20037;-33
2023/06/25 09:08:16;;;;;;;2.90;2.22;;;35.60;83.00;;;;;;5014841;28;20368;-35
2023/06/25 09:10:41;;;;;;;3.08;2.33;;;35.50;82.30;;;;;;5026707;28;20101;-33
2023/06/25 09:13:07;;;;;;;3.05;2.45;;;35.50;81.30;;;;;;5012484;28;20029;-33
2023/06/25 09:15:33;;;;;;;4.25;2.45;;;35.50;81.10;;;;;;5013157;28;20030;-33
2023/06/25 09:17:58;;;;;;;4.05;2.63;;;35.30;81.70;;;;;;5026896;28;20402;-34
2023/06/25 09:20:24;;;;;;;3.53;1.95;;;35.10;81.70;;;;;;5019196;28;20041;-31
2023/06/25 09:22:56;;;;;;;3.08;2.22;;;34.90;79.90;;;;;;5012079;28;20030;-41
2023/06/25 09:25:28;;;;;;;2.20;2.00;;;34.80;79.70;;;;;;5010401;28;20120;-40
2023/06/25 09:27:54;;;;;;;2.85;2.35;;;34.60;79.80;;;;;;5014357;28;20470;-38
2023/06/25 09:30:22;;;;;;;4.60;3.10;;;34.30;79.70;;;;;;5011638;28;20025;-38
2023/06/25 09:32:52;;;;;;;3.97;2.53;;;34.00;81.70;;;;;;5011617;28;20079;-41
2023/06/25 09:35:23;;;;;;;3.28;2.47;;;33.60;82.20;;;;;;5018547;28;20527;-40
2023/06/25 09:37:52;;;;;;;2.30;2.20;;;33.40;82.60;;;;;;5022948;28;20026;-40
2023/06/25 09:40:19;;;;;;;3.42;2.70;;;33.00;83.70;;;;;;5011720;28;20065;-40
2023/06/25 09:42:47;;;;;;;5.15;3.22;;;32.80;83.60;;;;;;5011146;28;20021;-41
2023/06/25 09:45:16;;;;;;;3.33;2.97;;;32.70;83.60;;;;;;5019533;28;20429;-38
2023/06/25 09:47:44;;;;;;;4.97;2.42;;;32.50;84.20;;;;;;5023501;28;20517;-38
2023/06/25 09:50:16;;;;;;;5.15;2.55;;;32.40;85.30;;;;;;5011244;28;20053;-38
2023/06/25 09:52:50;;;;;;;3.05;2.72;;;32.30;85.80;;;;;;5012102;28;20045;-40
2023/06/25 09:55:17;;;;;;;4.38;3.05;;;32.10;86.20;;;;;;5018943;28;20049;-40
2023/06/25 09:57:47;;;;;;;9.10;3.30;;;32.20;86.00;;;;;;5017725;28;20068;-40
2023/06/25 10:00:14;;;;;;;5.43;2.90;;;32.10;86.20;;;;;;4999679;28;20109;-44
2023/06/25 10:02:39;;;;;;;3.97;3.10;;;32.10;86.10;;;;;;5022489;28;20021;-42
2023/06/25 10:05:05;;;;;;;3.97;3.50;;;32.00;87.30;;;;;;5020796;28;20037;-43
2023/06/25 10:07:31;;;;;;;6.57;2.87;;;32.40;85.10;;;;;;5014234;28;20034;-39
2023/06/25 10:09:57;;;;;;;9.13;3.30;;;32.60;85.20;;;;;;5015539;28;20030;-39
2023/06/25 10:12:23;;;;;;;5.13;3.03;;;32.80;86.00;;;;;;5031522;28;20382;-39
2023/06/25 10:14:49;;;;;;;3.13;2.35;;;33.00;84.60;;;;;;5024323;28;20132;-40
2023/06/25 10:17:15;;;;;;;4.47;3.50;;;33.30;84.70;;;;;;5015375;28;20042;-40
2023/06/25 10:19:52;;;;;;;3.07;2.73;;;33.60;84.00;;;;;;5017822;28;20026;-39
2023/06/25 10:22:22;;;;;;;4.07;2.72;;;33.20;85.40;;;;;;5023872;28;20038;-40
2023/06/25 10:24:49;;;;;;;3.95;2.83;;;33.20;86.20;;;;;;5019720;28;20036;-40
2023/06/25 10:27:23;;;;;;;5.55;3.55;;;33.40;86.50;;;;;;5034718;28;20514;-38
2023/06/25 10:29:49;;;;;;;2.90;2.70;;;33.70;83.70;;;;;;5013127;28;20030;-41
2023/06/25 10:32:39;;;;;;;4.20;2.95;;;34.00;84.80;;;;;;5014762;28;20064;-41
2023/06/25 10:35:05;;;;;;;3.58;3.03;;;34.00;83.20;;;;;;5016028;28;20471;-47
2023/06/25 10:37:32;;;;;;;3.45;2.83;;;34.00;83.60;;;;;;5016089;28;20048;-38
2023/06/25 10:40:01;;;;;;;7.47;2.65;;;34.10;84.20;;;;;;5015968;28;20037;-40
2023/06/25 10:42:30;;;;;;;3.03;2.58;;;34.00;84.10;;;;;;5015738;28;20102;-39
2023/06/25 10:44:57;;;;;;;3.30;3.00;;;34.00;84.10;;;;;;5023489;28;20501;-38
2023/06/25 10:47:22;;;;;;;3.22;2.90;;;33.60;83.70;;;;;;5033092;28;20032;-63
2023/06/25 10:49:48;;;;;;;5.13;3.13;;;33.40;84.70;;;;;;5033579;28;20393;-40
2023/06/25 10:52:14;;;;;;;3.10;2.63;;;33.30;85.60;;;;;;5035572;28;20498;-40
2023/06/25 10:54:39;;;;;;;4.73;3.63;;;33.40;84.60;;;;;;5023400;28;20483;-39
2023/06/25 10:57:10;;;;;;;4.33;3.17;;;33.60;84.70;;;;;;5014101;28;20119;-38
2023/06/25 10:59:37;;;;;;;4.47;2.97;;;33.30;83.70;;;;;;5014413;28;20117;-39
2023/06/25 11:02:10;;;;;;;4.15;3.00;;;33.30;84.70;;;;;;5013069;28;20034;-37
2023/06/25 11:04:35;;;;;;;5.35;3.58;;;33.20;85.00;;;;;;5012732;28;20502;-37
2023/06/25 11:07:01;;;;;;;2.90;2.70;;;33.00;85.30;;;;;;5012128;28;20038;-37
2023/06/25 11:09:28;;;;;;;3.47;2.70;;;33.00;84.90;;;;;;5013402;28;20064;-40
2023/06/25 11:11:53;;;;;;;2.85;2.35;;;33.10;83.20;;;;;;5012372;28;20065;-38
2023/06/25 11:14:19;;;;;;;3.73;2.17;;;33.00;84.40;;;;;;5013001;28;20042;-39
2023/06/25 11:16:46;;;;;;;2.70;2.27;;;32.80;84.80;;;;;;5015190;28;20050;-70
2023/06/25 11:19:12;;;;;;;3.55;2.78;;;32.80;85.90;;;;;;5014421;28;20037;-38
2023/06/25 11:21:38;;;;;;;3.47;2.60;;;32.80;86.60;;;;;;5014461;28;20026;-38
2023/06/25 11:24:10;;;;;;;2.83;2.57;;;32.70;87.00;;;;;;5014030;28;20513;-37
2023/06/25 11:26:43;;;;;;;2.90;2.40;;;32.70;86.00;;;;;;5014512;28;20026;-38
2023/06/25 11:29:09;;;;;;;2.50;2.30;;;32.80;85.80;;;;;;5013437;28;20461;-39
2023/06/25 11:31:48;;;;;;;5.40;3.00;;;32.80;85.50;;;;;;5014847;28;20071;-35
2023/06/25 11:34:21;;;;;;;4.80;2.72;;;32.60;85.10;;;;;;5014104;28;20034;-33
2023/06/25 11:36:47;;;;;;;2.85;2.22;;;32.40;85.40;;;;;;5015106;28;20409;-33
2023/06/25 11:39:13;;;;;;;2.60;2.40;;;32.40;86.90;;;;;;5013781;28;20087;-39
2023/06/25 11:41:39;;;;;;;2.60;2.40;;;32.50;88.50;;;;;;5002943;28;20026;-34
2023/06/25 11:44:19;;;;;;;2.63;2.43;;;32.60;87.70;;;;;;4994818;28;20033;-32
2023/06/25 11:46:53;;;;;;;3.17;2.35;;;32.70;87.00;;;;;;4996704;28;20061;-31
2023/06/25 11:49:20;;;;;;;2.55;2.20;;;32.80;87.00;;;;;;5014624;28;20513;-33
2023/06/25 11:51:46;;;;;;;2.45;2.22;;;32.90;86.70;;;;;;5014565;28;20033;-34
2023/06/25 11:54:12;;;;;;;3.97;2.90;;;33.00;87.00;;;;;;5014846;28;20014;-34
2023/06/25 11:56:37;;;;;;;2.80;2.50;;;33.00;86.50;;;;;;5014399;28;20478;-31
2023/06/25 11:59:04;;;;;;;4.37;3.00;;;32.90;87.00;;;;;;5010776;28;20022;-30
2023/06/25 12:01:29;;;;;;;7.53;3.17;;;32.90;86.40;;;;;;5013000;28;20105;-39
2023/06/25 12:03:55;;;;;;;3.10;2.80;;;32.90;86.00;;;;;;5009165;28;20459;-42
2023/06/25 12:06:22;;;;;;;4.37;2.73;;;32.80;87.10;;;;;;5013859;28;20556;-40
2023/06/25 12:08:48;;;;;;;4.45;2.55;;;32.90;87.20;;;;;;5013550;28;20100;-39
2023/06/25 12:11:14;;;;;;;4.23;3.03;;;33.00;87.30;;;;;;5014468;28;20483;-39
2023/06/25 12:13:40;;;;;;;3.10;2.87;;;33.10;86.90;;;;;;5014016;28;20109;-36
2023/06/25 12:16:05;;;;;;;2.43;2.23;;;33.00;86.80;;;;;;5012257;28;20022;-40
2023/06/25 12:18:31;;;;;;;3.93;2.70;;;33.10;86.20;;;;;;5014225;28;20032;-40
2023/06/25 12:20:57;;;;;;;3.37;2.90;;;33.10;86.80;;;;;;5014262;28;20026;-39
2023/06/25 12:23:22;;;;;;;8.13;3.10;;;33.10;86.00;;;;;;5013472;28;20041;-40
2023/06/25 12:25:48;;;;;;;5.30;2.63;;;33.10;88.00;;;;;;5013254;28;20529;-40
2023/06/25 12:28:14;;;;;;;3.33;3.03;;;33.10;87.20;;;;;;5013935;28;20032;-66
2023/06/25 12:30:40;;;;;;;3.43;2.73;;;33.10;87.60;;;;;;5014090;28;20377;-63
2023/06/25 12:33:05;;;;;;;3.33;3.03;;;33.20;88.10;;;;;;5013821;28;20052;-40
2023/06/25 12:35:31;;;;;;;5.10;3.03;;;33.40;87.10;;;;;;5014257;28;20046;-39
2023/06/25 12:37:57;;;;;;;3.87;3.10;;;33.40;86.40;;;;;;5033511;28;20068;-40
2023/06/25 12:40:23;;;;;;;6.20;2.40;;;33.50;86.70;;;;;;5033840;28;20018;-42